createdAt,value
2023-11-17T00:00:13.675Z,100538.66
2023-11-17T00:02:41.674Z,100537.78
2023-11-17T00:05:08.975Z,100543.78
2023-11-17T00:07:36.012Z,100542.06
2023-11-17T00:10:03.823Z,100551.56
2023-11-17T00:12:30.979Z,100551.59
2023-11-17T00:14:57.882Z,100548.16
2023-11-17T00:17:25.058Z,100543.81
2023-11-17T00:19:52.506Z,100548.16
2023-11-17T00:22:21.625Z,100542.97
2023-11-17T00:24:48.792Z,100555.09
2023-11-17T00:27:16.088Z,100548.19
2023-11-17T00:29:43.069Z,100543.88
2023-11-17T00:32:10.026Z,100547.31
2023-11-17T00:34:37.107Z,100550.78
2023-11-17T00:37:08.887Z,100547.34
2023-11-17T00:39:38.178Z,100539.56
2023-11-17T00:42:05.389Z,100545.63
2023-11-17T00:44:32.526Z,100550.84
2023-11-17T00:47:00.750Z,100552.56
2023-11-17T00:49:28.096Z,100550.84
2023-11-17T00:51:55.409Z,100550.00
2023-11-17T00:54:27.307Z,100553.44
2023-11-17T00:56:55.785Z,100556.06
2023-11-17T00:59:23.412Z,100563.03
2023-11-17T01:01:50.631Z,100562.22
2023-11-17T01:04:18.359Z,100555.31
2023-11-17T01:06:45.795Z,100563.97
2023-11-17T01:09:13.626Z,100563.09
2023-11-17T01:11:40.993Z,100555.25
2023-11-17T01:14:09.821Z,100566.59
2023-11-17T01:16:37.106Z,100562.31
2023-11-17T01:19:04.275Z,100558.84
2023-11-17T01:21:32.443Z,100566.63
2023-11-17T01:24:02.570Z,100568.38
2023-11-17T01:26:30.935Z,100570.94
2023-11-17T01:28:58.198Z,100575.25
2023-11-17T01:31:25.693Z,100571.84
2023-11-17T01:33:52.661Z,100576.13
2023-11-17T01:36:21.519Z,100581.31
2023-11-17T01:38:53.275Z,100575.28
2023-11-17T01:41:22.547Z,100570.94
2023-11-17T01:43:49.895Z,100578.69
2023-11-17T01:46:18.952Z,100582.16
2023-11-17T01:48:45.942Z,100571.75
2023-11-17T01:51:13.638Z,100576.06
2023-11-17T01:53:41.258Z,100572.63
2023-11-17T01:56:08.419Z,100570.00
2023-11-17T01:58:35.517Z,100581.22
2023-11-17T02:01:02.899Z,100573.47
2023-11-17T02:03:30.534Z,100579.56
2023-11-17T02:06:43.592Z,100581.28
2023-11-17T02:09:35.802Z,100576.09
2023-11-17T02:12:28.399Z,100576.94
2023-11-17T02:15:02.254Z,100576.94
2023-11-17T02:17:30.333Z,100579.53
2023-11-17T02:20:13.193Z,100579.53
2023-11-17T02:22:49.098Z,100580.38
2023-11-17T02:25:34.065Z,100582.13
2023-11-17T02:28:21.660Z,100589.03
2023-11-17T02:30:57.319Z,100593.34
2023-11-17T02:33:28.521Z,100591.53
2023-11-17T02:35:58.538Z,100597.66
2023-11-17T02:38:25.499Z,100596.81
2023-11-17T02:40:57.432Z,100596.81
2023-11-17T02:43:30.727Z,100599.44
2023-11-17T02:46:01.702Z,100595.97
2023-11-17T02:48:30.922Z,100596.84
2023-11-17T02:51:19.745Z,100597.69
2023-11-17T02:53:51.096Z,100603.78
2023-11-17T02:56:22.959Z,100600.28
2023-11-17T02:58:55.563Z,100597.69
2023-11-17T03:01:24.785Z,100596.88
2023-11-17T03:03:52.379Z,100593.34
2023-11-17T03:06:19.369Z,100600.34
2023-11-17T03:08:48.896Z,100599.47
2023-11-17T03:11:22.195Z,100604.66
2023-11-17T03:13:52.498Z,100598.59
2023-11-17T03:16:25.114Z,100608.09
2023-11-17T03:18:53.646Z,100605.56
2023-11-17T03:21:24.463Z,100612.44
2023-11-17T03:23:52.034Z,100621.09
2023-11-17T03:26:20.427Z,100604.56
2023-11-17T03:28:47.357Z,100623.66
2023-11-17T03:31:15.657Z,100622.75
2023-11-17T03:33:44.862Z,100619.31
2023-11-17T03:36:20.432Z,100628.06
2023-11-17T03:38:47.762Z,100624.56
2023-11-17T03:41:19.632Z,100624.56
2023-11-17T03:43:46.844Z,100630.63
2023-11-17T03:46:14.679Z,100624.56
2023-11-17T03:48:41.691Z,100634.06
2023-11-17T03:51:09.798Z,100629.75
2023-11-17T03:53:37.128Z,100623.69
2023-11-17T03:56:05.216Z,100630.53
2023-11-17T03:58:32.150Z,100632.31
2023-11-17T04:00:59.137Z,100637.53
2023-11-17T04:03:26.132Z,100640.13
2023-11-17T04:05:54.505Z,100634.94
2023-11-17T04:08:21.475Z,100641.88
2023-11-17T04:10:48.434Z,100641.84
2023-11-17T04:13:15.674Z,100642.72
2023-11-17T04:15:42.616Z,100653.09
2023-11-17T04:18:11.264Z,100655.69
2023-11-17T04:20:38.201Z,100659.19
2023-11-17T04:23:05.136Z,100657.50
2023-11-17T04:25:32.081Z,100661.81
2023-11-17T04:27:59.451Z,100659.22
2023-11-17T04:30:26.615Z,100657.56
2023-11-17T04:32:53.608Z,100656.72
2023-11-17T04:35:20.570Z,100663.66
2023-11-17T04:37:47.693Z,100662.84
2023-11-17T04:40:17.233Z,100665.44
2023-11-17T04:42:44.869Z,100666.28
2023-11-17T04:45:11.833Z,100674.09
2023-11-17T04:47:38.828Z,100668.06
2023-11-17T04:50:10.072Z,100674.09
2023-11-17T04:52:37.233Z,100674.09
2023-11-17T04:55:06.838Z,100673.25
2023-11-17T04:57:35.519Z,100682.78
2023-11-17T05:00:05.377Z,100679.31
2023-11-17T05:02:34.296Z,100681.06
2023-11-17T05:05:01.956Z,100681.06
2023-11-17T05:07:29.034Z,100684.50
2023-11-17T05:09:56.129Z,100685.41
2023-11-17T05:12:23.325Z,100689.72
2023-11-17T05:14:51.273Z,100687.19
2023-11-17T05:17:18.302Z,100686.31
2023-11-17T05:19:46.605Z,100689.78
2023-11-17T05:22:13.746Z,100688.00
2023-11-17T05:24:40.692Z,100694.97
2023-11-17T05:27:07.998Z,100710.53
2023-11-17T05:29:34.965Z,100716.56
2023-11-17T05:32:02.072Z,100711.38
2023-11-17T05:34:29.828Z,100714.88
2023-11-17T05:36:56.815Z,100711.38
2023-11-17T05:39:24.799Z,100713.16
2023-11-17T05:41:53.001Z,100719.13
2023-11-17T05:44:20.283Z,100709.63
2023-11-17T05:46:47.386Z,100718.28
2023-11-17T05:49:14.449Z,100720.00
2023-11-17T05:51:41.504Z,100713.03
2023-11-17T05:54:08.404Z,100722.53
2023-11-17T05:56:35.320Z,100723.41
2023-11-17T05:59:02.260Z,100716.47
2023-11-17T06:01:30.513Z,100731.16
2023-11-17T06:03:57.799Z,100729.31
2023-11-17T06:06:24.814Z,100740.63
2023-11-17T06:08:51.715Z,100749.31
2023-11-17T06:11:26.142Z,100751.81
2023-11-17T06:13:53.058Z,100740.56
2023-11-17T06:16:22.822Z,100745.81
2023-11-17T06:18:50.992Z,100751.81
2023-11-17T06:21:18.023Z,100748.34
2023-11-17T06:23:45.111Z,100756.97
2023-11-17T06:26:12.059Z,100761.25
2023-11-17T06:28:39.384Z,100755.06
2023-11-17T06:31:07.596Z,100761.09
2023-11-17T06:33:34.946Z,100758.41
2023-11-17T06:36:04.870Z,100759.19
2023-11-17T06:38:33.039Z,100755.78
2023-11-17T06:41:00.645Z,100761.81
2023-11-17T06:43:28.677Z,100773.91
2023-11-17T06:45:55.696Z,100758.41
2023-11-17T06:48:24.274Z,100764.50
2023-11-17T06:50:51.224Z,100767.97
2023-11-17T06:53:20.116Z,100768.78
2023-11-17T06:55:47.072Z,100766.16
2023-11-17T06:58:14.040Z,100780.06
2023-11-17T07:00:41.949Z,100774.88
2023-11-17T07:03:08.912Z,100782.63
2023-11-17T07:05:36.081Z,100794.75
2023-11-17T07:08:03.041Z,100799.06
2023-11-17T07:10:30.428Z,100807.75
2023-11-17T07:12:57.641Z,100810.34
2023-11-17T07:15:26.052Z,100806.00
2023-11-17T07:17:55.013Z,100811.22
2023-11-17T07:20:23.358Z,100817.28
2023-11-17T07:22:50.502Z,100819.03
2023-11-17T07:25:18.326Z,100823.38
2023-11-17T07:27:45.699Z,100828.63
2023-11-17T07:30:15.854Z,100829.56
2023-11-17T07:32:46.392Z,100830.41
2023-11-17T07:35:13.430Z,100837.38
2023-11-17T07:37:40.411Z,100846.06
2023-11-17T07:40:10.419Z,100844.34
2023-11-17T07:42:40.630Z,100838.34
2023-11-17T07:45:08.840Z,100847.06
2023-11-17T07:47:37.761Z,100849.69
2023-11-17T07:50:08.403Z,100832.28
2023-11-17T07:52:36.158Z,100860.94
2023-11-17T07:55:03.602Z,100854.03
2023-11-17T07:57:31.309Z,100860.97
2023-11-17T07:59:59.048Z,100865.31
2023-11-17T08:02:25.978Z,100861.06
2023-11-17T08:04:52.961Z,100861.88
2023-11-17T08:07:19.984Z,100879.31
2023-11-17T08:09:47.020Z,100870.59
2023-11-17T08:12:14.688Z,100879.31
2023-11-17T08:14:41.608Z,100886.31
2023-11-17T08:17:08.858Z,100888.91
2023-11-17T08:19:36.496Z,100892.31
2023-11-17T08:22:04.865Z,100895.81
2023-11-17T08:24:32.447Z,100899.22
2023-11-17T08:26:59.386Z,100902.78
2023-11-17T08:29:27.108Z,100900.22
2023-11-17T08:31:55.705Z,100899.34
2023-11-17T08:34:23.090Z,100914.19
2023-11-17T08:36:50.612Z,100915.09
2023-11-17T08:39:27.193Z,100924.63
2023-11-17T08:41:56.143Z,100935.06
2023-11-17T08:44:24.116Z,100926.47
2023-11-17T08:46:52.374Z,100931.66
2023-11-17T08:49:19.593Z,100940.31
2023-11-17T08:51:48.229Z,100940.25
2023-11-17T08:54:16.197Z,100942.84
2023-11-17T08:56:44.225Z,100948.88
2023-11-17T08:59:11.433Z,100955.78
2023-11-17T09:01:38.705Z,100949.69
2023-11-17T09:04:05.891Z,100946.16
2023-11-17T09:06:34.702Z,100967.84
2023-11-17T09:09:16.086Z,100969.53
2023-11-17T09:11:51.081Z,100977.28
2023-11-17T09:14:18.700Z,100983.25
2023-11-17T09:16:49.817Z,100985.84
2023-11-17T09:19:17.584Z,100993.53
2023-11-17T09:21:44.681Z,101001.28
2023-11-17T09:24:11.605Z,100995.25
2023-11-17T09:26:38.489Z,100997.00
2023-11-17T09:29:05.418Z,101000.47
2023-11-17T09:31:32.623Z,101012.59
2023-11-17T09:33:59.683Z,101007.41
2023-11-17T09:36:27.287Z,101008.31
2023-11-17T09:38:56.205Z,101013.41
2023-11-17T09:41:24.325Z,101006.50
2023-11-17T09:43:58.866Z,101013.59
2023-11-17T09:46:29.101Z,101013.66
2023-11-17T09:49:02.045Z,101020.63
2023-11-17T09:51:29.678Z,101023.25
2023-11-17T09:53:59.243Z,101025.91
2023-11-17T09:56:27.569Z,101026.78
2023-11-17T09:58:55.080Z,101027.72
2023-11-17T10:01:28.882Z,101027.81
2023-11-17T10:04:00.360Z,101033.03
2023-11-17T10:06:29.683Z,101019.97
2023-11-17T10:08:59.255Z,101035.72
2023-11-17T10:11:27.375Z,101027.09
2023-11-17T10:13:57.602Z,101025.41
2023-11-17T10:16:25.063Z,101033.22
2023-11-17T10:18:53.294Z,101029.72
2023-11-17T10:21:20.538Z,101046.28
2023-11-17T10:23:52.172Z,101041.13
2023-11-17T10:26:21.187Z,101048.06
2023-11-17T10:28:48.807Z,101067.16
2023-11-17T10:31:17.860Z,101064.47
2023-11-17T10:33:46.740Z,101079.09
2023-11-17T10:36:17.268Z,101077.25
2023-11-17T10:38:47.152Z,101069.38
2023-11-17T10:41:31.247Z,101072.81
2023-11-17T10:44:00.228Z,101061.47
2023-11-17T10:46:37.188Z,101086.69
2023-11-17T10:49:06.215Z,101079.78
2023-11-17T10:51:35.761Z,101091.06
2023-11-17T10:54:07.030Z,101079.94
2023-11-17T10:56:35.753Z,101085.19
2023-11-17T10:59:04.024Z,101084.41
2023-11-17T11:01:32.772Z,101082.75
2023-11-17T11:04:00.660Z,101082.81
2023-11-17T11:06:28.626Z,101085.50
2023-11-17T11:08:59.446Z,101085.56
2023-11-17T11:11:27.868Z,101091.75
2023-11-17T11:13:55.998Z,101095.28
2023-11-17T11:16:25.545Z,101093.69
2023-11-17T11:18:59.434Z,101094.72
2023-11-17T11:21:31.356Z,101102.59
2023-11-17T11:24:02.223Z,101100.03
2023-11-17T11:26:30.969Z,101104.44
2023-11-17T11:29:00.116Z,101113.22
2023-11-17T11:31:27.339Z,101105.47
2023-11-17T11:33:54.342Z,101107.19
2023-11-17T11:36:21.391Z,101109.69
2023-11-17T11:38:48.846Z,101120.13
2023-11-17T11:41:18.478Z,101117.53
2023-11-17T11:43:46.822Z,101114.06
2023-11-17T11:46:19.382Z,101119.22
2023-11-17T11:48:54.036Z,101124.44
2023-11-17T11:51:24.745Z,101129.59
2023-11-17T11:54:08.665Z,101126.13
2023-11-17T11:56:41.540Z,101135.72
2023-11-17T11:59:09.319Z,101130.50
2023-11-17T12:01:37.573Z,101133.16
2023-11-17T12:04:07.353Z,101137.56
2023-11-17T12:06:39.588Z,101144.59
2023-11-17T12:09:21.101Z,101150.72
2023-11-17T12:11:52.939Z,101148.13
2023-11-17T12:14:27.620Z,101146.38
2023-11-17T12:16:56.928Z,101155.91
2023-11-17T12:19:28.771Z,101162.88
2023-11-17T12:21:59.881Z,101161.16
2023-11-17T12:24:28.188Z,101168.91
2023-11-17T12:26:56.990Z,101168.72
2023-11-17T12:29:33.304Z,101173.75
2023-11-17T12:32:09.957Z,101165.81
2023-11-17T12:34:43.510Z,101174.44
2023-11-17T12:37:11.527Z,101178.91
2023-11-17T12:39:41.286Z,101180.72
2023-11-17T12:42:21.966Z,101185.13
2023-11-17T12:44:49.206Z,101191.28
2023-11-17T12:47:25.454Z,101196.53
2023-11-17T12:49:57.583Z,101203.38
2023-11-17T12:52:24.917Z,101203.31
2023-11-17T12:55:09.959Z,101210.16
2023-11-17T12:57:38.233Z,101204.03
2023-11-17T13:00:17.699Z,101204.03
2023-11-17T13:02:45.218Z,101214.38
2023-11-17T13:05:13.374Z,101223.84
2023-11-17T13:07:40.812Z,101222.97
2023-11-17T13:10:12.336Z,101229.81
2023-11-17T13:12:40.651Z,101228.00
2023-11-17T13:15:11.194Z,101238.44
2023-11-17T13:17:38.272Z,101232.31
2023-11-17T13:20:13.611Z,101241.78
2023-11-17T13:22:44.392Z,101237.44
2023-11-17T13:25:12.860Z,101237.44
2023-11-17T13:27:46.258Z,101239.16
2023-11-17T13:30:18.719Z,101242.69
2023-11-17T13:33:02.848Z,101243.63
2023-11-17T13:35:31.706Z,101247.06
2023-11-17T13:38:05.258Z,101254.72
2023-11-17T13:40:35.255Z,101254.72
2023-11-17T13:43:12.707Z,101259.91
2023-11-17T13:45:40.818Z,101266.06
2023-11-17T13:48:11.784Z,101269.53
2023-11-17T13:50:53.278Z,101266.91
2023-11-17T13:53:23.127Z,101268.66
2023-11-17T13:55:53.501Z,101274.81
2023-11-17T13:58:21.396Z,101280.88
2023-11-17T14:00:49.010Z,101282.56
2023-11-17T14:03:16.055Z,101288.53
2023-11-17T14:05:43.596Z,101291.03
2023-11-17T14:08:13.423Z,101300.50
2023-11-17T14:10:40.368Z,101303.88
2023-11-17T14:13:07.333Z,101310.72
2023-11-17T14:15:41.056Z,101306.31
2023-11-17T14:18:12.666Z,101319.25
2023-11-17T14:20:41.748Z,101319.22
2023-11-17T14:23:08.680Z,101312.06
2023-11-17T14:25:37.623Z,101326.97
2023-11-17T14:28:04.806Z,101338.22
2023-11-17T14:30:31.890Z,101331.19
2023-11-17T14:33:00.249Z,101355.59
2023-11-17T14:35:27.376Z,101359.91
2023-11-17T14:37:54.311Z,101362.47
2023-11-17T14:40:21.345Z,101365.94
2023-11-17T14:42:48.309Z,101365.94
2023-11-17T14:45:17.491Z,101375.47
2023-11-17T14:47:47.465Z,101380.69
2023-11-17T14:50:15.387Z,101382.44
2023-11-17T14:52:44.099Z,101387.63
2023-11-17T14:55:11.977Z,101390.22
2023-11-17T14:57:39.871Z,101384.91
2023-11-17T15:00:20.986Z,101404.06
2023-11-17T15:02:49.398Z,101399.69
2023-11-17T15:05:22.269Z,101408.28
2023-11-17T15:07:50.421Z,101403.03
2023-11-17T15:10:19.654Z,101400.31
2023-11-17T15:12:48.575Z,101414.13
2023-11-17T15:15:30.900Z,101417.53
2023-11-17T15:17:59.778Z,101416.59
2023-11-17T15:20:29.600Z,101417.41
2023-11-17T15:22:57.019Z,101426.03
2023-11-17T15:25:32.726Z,101430.31
2023-11-17T15:27:59.633Z,101430.22
2023-11-17T15:30:28.165Z,101432.75
2023-11-17T15:32:55.353Z,101437.00
2023-11-17T15:35:24.922Z,101433.53
2023-11-17T15:37:52.205Z,101441.25
2023-11-17T15:40:22.859Z,101439.47
2023-11-17T15:42:49.991Z,101443.34
2023-11-17T15:45:23.919Z,101449.16
2023-11-17T15:47:50.946Z,101455.13
2023-11-17T15:50:20.037Z,101460.19
2023-11-17T15:52:47.085Z,101456.59
2023-11-17T15:55:17.422Z,101461.66
2023-11-17T15:57:45.934Z,101458.88
2023-11-17T16:00:24.796Z,101460.53
2023-11-17T16:02:53.222Z,101463.00
2023-11-17T16:05:22.711Z,101471.56
2023-11-17T16:07:52.277Z,101455.81
2023-11-17T16:10:22.481Z,101471.56
2023-11-17T16:12:54.911Z,101482.75
2023-11-17T16:15:23.040Z,101490.44
2023-11-17T16:17:55.450Z,101487.00
2023-11-17T16:20:27.157Z,101492.97
2023-11-17T16:22:55.040Z,101498.09
2023-11-17T16:25:22.577Z,101500.63
2023-11-17T16:27:50.954Z,101510.94
2023-11-17T16:30:22.056Z,101517.72
2023-11-17T16:32:56.026Z,101519.50
2023-11-17T16:35:28.532Z,101511.56
2023-11-17T16:37:55.958Z,101513.31
2023-11-17T16:40:28.799Z,101520.16
2023-11-17T16:43:08.791Z,101523.44
2023-11-17T16:45:44.350Z,101524.94
2023-11-17T16:48:11.501Z,101530.06
2023-11-17T16:50:43.548Z,101527.31
2023-11-17T16:53:15.317Z,101543.81
2023-11-17T16:55:44.234Z,101540.22
2023-11-17T16:58:13.232Z,101554.81
2023-11-17T17:00:41.716Z,101552.16
2023-11-17T17:03:09.021Z,101557.97
2023-11-17T17:05:37.123Z,101557.97
2023-11-17T17:08:07.977Z,101567.34
2023-11-17T17:10:36.526Z,101575.03
2023-11-17T17:13:04.544Z,101575.81
2023-11-17T17:15:34.087Z,101577.47
2023-11-17T17:18:08.144Z,101581.72
2023-11-17T17:20:41.733Z,101582.56
2023-11-17T17:23:13.784Z,101585.06
2023-11-17T17:25:41.785Z,101582.41
2023-11-17T17:28:13.910Z,101585.09
2023-11-17T17:30:42.721Z,101589.47
2023-11-17T17:33:11.913Z,101589.38
2023-11-17T17:35:44.548Z,101595.44
2023-11-17T17:38:13.178Z,101597.91
2023-11-17T17:40:41.764Z,101603.94
2023-11-17T17:43:10.877Z,101599.47
2023-11-17T17:45:38.615Z,101604.47
2023-11-17T17:48:08.566Z,101604.38
2023-11-17T17:50:36.260Z,101602.50
2023-11-17T17:53:03.280Z,101605.78
2023-11-17T17:55:30.406Z,101613.28
2023-11-17T17:57:58.015Z,101613.28
2023-11-17T18:00:26.347Z,101623.44
2023-11-17T18:02:59.392Z,101619.97
2023-11-17T18:05:28.303Z,101625.91
2023-11-17T18:07:56.108Z,101624.94
2023-11-17T18:10:23.414Z,101634.09
2023-11-17T18:12:52.021Z,101630.66
2023-11-17T18:15:22.574Z,101627.13
2023-11-17T18:17:53.133Z,101643.63
2023-11-17T18:20:24.144Z,101649.56
2023-11-17T18:22:53.448Z,101653.81
2023-11-17T18:25:22.024Z,101664.94
2023-11-17T18:27:50.805Z,101658.84
2023-11-17T18:30:19.713Z,101665.72
2023-11-17T18:32:47.476Z,101664.78
2023-11-17T18:35:16.935Z,101673.38
2023-11-17T18:37:49.134Z,101665.59
2023-11-17T18:40:26.057Z,101666.38
2023-11-17T18:42:53.838Z,101681.22
2023-11-17T18:45:21.508Z,101670.84
2023-11-17T18:47:49.272Z,101672.84
2023-11-17T18:50:16.492Z,101676.28
2023-11-17T18:52:44.130Z,101699.25
2023-11-17T18:55:14.457Z,101681.03
2023-11-17T18:57:41.929Z,101686.25
2023-11-17T19:00:12.595Z,101671.56
2023-11-17T19:02:40.759Z,101686.63
2023-11-17T19:05:10.722Z,101691.91
2023-11-17T19:07:38.596Z,101682.28
2023-11-17T19:10:09.805Z,101691.00
2023-11-17T19:12:36.933Z,101703.09
2023-11-17T19:15:07.872Z,101709.09
2023-11-17T19:17:39.273Z,101709.91
2023-11-17T19:20:13.576Z,101708.09
2023-11-17T19:22:41.746Z,101715.88
2023-11-17T19:25:09.651Z,101717.47
2023-11-17T19:27:37.846Z,101717.47
2023-11-17T19:30:13.806Z,101720.91
2023-11-17T19:32:46.832Z,101721.63
2023-11-17T19:35:15.519Z,101728.44
2023-11-17T19:37:43.963Z,101729.88
2023-11-17T19:40:13.369Z,101736.91
2023-11-17T19:42:42.921Z,101735.94
2023-11-17T19:45:17.203Z,101739.38
2023-11-17T19:47:48.023Z,101743.59
2023-11-17T19:50:18.601Z,101745.19
2023-11-17T19:52:48.252Z,101743.25
2023-11-17T19:55:16.313Z,101750.03
2023-11-17T19:57:48.219Z,101755.97
2023-11-17T20:00:24.271Z,101749.69
2023-11-17T20:02:52.755Z,101754.00
2023-11-17T20:05:23.181Z,101760.88
2023-11-17T20:07:51.067Z,101757.34
2023-11-17T20:10:18.191Z,101771.06
2023-11-17T20:12:46.165Z,101775.38
2023-11-17T20:15:16.520Z,101769.91
2023-11-17T20:17:55.225Z,101782.97
2023-11-17T20:20:25.826Z,101784.63
2023-11-17T20:22:53.052Z,101786.38
2023-11-17T20:25:24.509Z,101792.25
2023-11-17T20:27:52.633Z,101786.38
2023-11-17T20:30:23.478Z,101789.03
2023-11-17T20:32:53.730Z,101792.53
2023-11-17T20:35:24.739Z,101786.59
2023-11-17T20:37:52.710Z,101785.72
2023-11-17T20:40:19.940Z,101792.78
2023-11-17T20:42:48.767Z,101776.31
2023-11-17T20:45:16.774Z,101783.38
2023-11-17T20:47:45.576Z,101781.69
2023-11-17T20:50:22.898Z,101783.44
2023-11-17T20:52:52.415Z,101775.44
2023-11-17T20:55:20.971Z,101796.38
2023-11-17T20:57:50.547Z,101796.31
2023-11-17T21:00:24.668Z,101795.41
2023-11-17T21:02:57.353Z,101796.19
2023-11-17T21:05:25.456Z,101803.91
2023-11-17T21:07:54.818Z,101802.00
2023-11-17T21:10:27.915Z,101809.75
2023-11-17T21:12:56.526Z,101809.66
2023-11-17T21:15:24.547Z,101804.28
2023-11-17T21:17:54.646Z,101817.34
2023-11-17T21:20:22.181Z,101820.78
2023-11-17T21:22:50.033Z,101826.72
2023-11-17T21:25:19.502Z,101830.13
2023-11-17T21:27:48.541Z,101827.41
2023-11-17T21:30:16.707Z,101829.88
2023-11-17T21:32:48.513Z,101826.97
2023-11-17T21:35:18.655Z,101836.56
2023-11-17T21:37:46.350Z,101840.78
2023-11-17T21:40:17.019Z,101843.25
2023-11-17T21:42:45.949Z,101841.44
2023-11-17T21:45:23.221Z,101855.97
2023-11-17T21:47:57.333Z,101848.81
2023-11-17T21:50:26.141Z,101863.56
2023-11-17T21:52:56.553Z,101852.13
2023-11-17T21:55:23.874Z,101857.28
2023-11-17T21:57:50.870Z,101863.22
2023-11-17T22:00:19.479Z,101852.63
2023-11-17T22:02:49.474Z,101856.78
2023-11-17T22:05:19.029Z,101861.78
2023-11-17T22:07:48.456Z,101858.28
2023-11-17T22:10:15.648Z,101858.25
2023-11-17T22:12:46.530Z,101860.72
2023-11-17T22:15:13.983Z,101855.38
2023-11-17T22:17:44.046Z,101858.53
2023-11-17T22:20:16.530Z,101870.78
2023-11-17T22:22:45.591Z,101873.28
2023-11-17T22:25:13.874Z,101873.16
2023-11-17T22:27:44.547Z,101871.19
2023-11-17T22:30:20.762Z,101888.66
2023-11-17T22:32:49.515Z,101886.19
2023-11-17T22:35:18.511Z,101886.28
2023-11-17T22:37:54.598Z,101900.28
2023-11-17T22:40:23.659Z,101891.72
2023-11-17T22:42:52.606Z,101896.91
2023-11-17T22:45:19.741Z,101892.66
2023-11-17T22:47:47.584Z,101891.84
2023-11-17T22:50:17.937Z,101895.31
2023-11-17T22:52:46.209Z,101894.47
2023-11-17T22:55:13.496Z,101890.22
2023-11-17T22:57:40.981Z,101886.72
2023-11-17T23:00:37.766Z,101885.84
2023-11-17T23:03:08.582Z,101883.16
2023-11-17T23:05:42.466Z,101889.88
2023-11-17T23:08:12.763Z,101894.16
2023-11-17T23:10:39.734Z,101891.53
2023-11-17T23:13:08.179Z,101897.50
2023-11-17T23:15:35.180Z,101906.88
2023-11-17T23:18:02.697Z,101906.00
2023-11-17T23:20:30.350Z,101909.34
2023-11-17T23:22:58.145Z,101916.97
2023-11-17T23:25:26.300Z,101922.00
2023-11-17T23:27:53.579Z,101932.34
2023-11-17T23:30:20.652Z,101931.31
2023-11-17T23:32:48.494Z,101934.63
2023-11-17T23:35:15.720Z,101918.75
2023-11-17T23:37:42.686Z,101931.94
2023-11-17T23:40:17.134Z,101925.66
2023-11-17T23:42:48.908Z,101937.19
2023-11-17T23:45:17.605Z,101937.31
2023-11-17T23:47:44.862Z,101940.84
2023-11-17T23:50:12.577Z,101943.56
2023-11-17T23:52:39.541Z,101942.88
2023-11-17T23:55:07.206Z,101952.47
2023-11-17T23:57:34.158Z,101947.44
